Time;durP1;ratioP1;P1;durP2;ratioP2;P2;SDS_P1;SDS_P2;PMS_P1;PMS_P2;Temp;Humidity;BMP_temperature;BMP_pressure;BME280_temperature;BME280_humidity;BME280_pressure;Samples;Min_cycle;Max_cycle;Signal;HPM_P1;HPM_P2
2022/09/13 00:01:41;;;;;;;5.30;1.98;;;;;;;;;;4974107;28;20031;-62
2022/09/13 00:04:07;;;;;;;2.50;1.80;;;;;;;;;;4958258;28;20031;-62
2022/09/13 00:06:33;;;;;;;2.38;1.92;;;;;;;;;;4937765;28;20043;-62
2022/09/13 00:09:00;;;;;;;2.72;2.13;;;;;;;;;;4954786;28;20082;-61
2022/09/13 00:11:28;;;;;;;4.05;2.25;;;;;;;;;;4954788;28;20035;-62
2022/09/13 00:13:55;;;;;;;5.32;2.00;;;;;;;;;;4954085;28;20411;-63
2022/09/13 00:16:24;;;;;;;2.22;1.83;;;;;;;;;;4954559;28;20051;-61
2022/09/13 00:18:51;;;;;;;5.20;2.30;;;;;;;;;;4958459;28;20479;-62
2022/09/13 00:21:19;;;;;;;3.53;2.13;;;;;;;;;;4959386;28;20039;-61
2022/09/13 00:23:47;;;;;;;3.75;2.50;;;;;;;;;;4951495;28;20050;-60
2022/09/13 00:26:16;;;;;;;4.65;2.25;;;;;;;;;;4954277;28;20106;-61
2022/09/13 00:28:44;;;;;;;5.07;2.20;;;;;;;;;;4954401;28;20471;-62
2022/09/13 00:31:10;;;;;;;3.63;2.58;;;;;;;;;;4954491;28;20035;-60
2022/09/13 00:33:37;;;;;;;4.45;2.35;;;;;;;;;;4954434;29;20431;-60
2022/09/13 00:36:05;;;;;;;3.38;2.63;;;;;;;;;;4953808;29;20050;-60
2022/09/13 00:38:31;;;;;;;3.65;2.45;;;;;;;;;;4954854;28;20027;-61
2022/09/13 00:40:57;;;;;;;5.18;2.63;;;;;;;;;;4954122;29;20035;-60
2022/09/13 00:43:59;;;;;;;3.65;2.55;;;;;;;;;;4954229;29;20028;-62
2022/09/13 00:46:43;;;;;;;4.95;2.38;;;;;;;;;;4954428;28;20380;-62
2022/09/13 00:49:15;;;;;;;5.70;2.60;;;;;;;;;;4953174;29;20039;-62
2022/09/13 00:51:44;;;;;;;4.60;2.40;;;;;;;;;;4954145;28;20094;-62
2022/09/13 00:54:12;;;;;;;4.72;2.50;;;;;;;;;;4954180;28;20027;-62
2022/09/13 00:56:47;;;;;;;3.50;2.47;;;;;;;;;;4954196;29;20513;-66
2022/09/13 00:59:20;;;;;;;3.78;2.70;;;;;;;;;;4953870;29;20471;-62
2022/09/13 01:01:51;;;;;;;3.75;2.65;;;;;;;;;;4954534;28;20055;-69
2022/09/13 01:04:21;;;;;;;3.60;2.95;;;;;;;;;;4953226;29;20031;-63
2022/09/13 01:06:49;;;;;;;3.95;2.90;;;;;;;;;;4953936;28;20059;-62
2022/09/13 01:09:15;;;;;;;5.55;3.08;;;;;;;;;;4953337;28;20027;-63
2022/09/13 01:12:30;;;;;;;4.80;3.03;;;;;;;;;;4953807;29;20054;-63
2022/09/13 01:14:59;;;;;;;4.35;3.20;;;;;;;;;;4959313;28;20054;-63
2022/09/13 01:17:28;;;;;;;4.07;3.40;;;;;;;;;;4973232;28;20038;-63
2022/09/13 01:19:54;;;;;;;5.20;3.00;;;;;;;;;;4973034;28;20046;-62
2022/09/13 01:22:50;;;;;;;3.30;2.90;;;;;;;;;;4973072;28;20023;-62
2022/09/13 01:25:27;;;;;;;4.18;3.20;;;;;;;;;;4972995;28;20125;-62
2022/09/13 01:28:16;;;;;;;3.92;3.53;;;;;;;;;;4973065;28;20050;-63
2022/09/13 01:31:06;;;;;;;4.97;3.08;;;;;;;;;;4973407;28;20417;-63
2022/09/13 01:33:57;;;;;;;3.92;3.15;;;;;;;;;;4972666;28;20505;-63
2022/09/13 01:36:54;;;;;;;5.10;3.33;;;;;;;;;;4973212;28;20052;-68
2022/09/13 01:39:45;;;;;;;5.88;3.50;;;;;;;;;;4972997;28;20509;-61
2022/09/13 01:42:15;;;;;;;3.65;3.20;;;;;;;;;;4973144;28;20490;-62
2022/09/13 01:45:22;;;;;;;3.67;3.13;;;;;;;;;;4971882;28;20390;-61
2022/09/13 01:47:55;;;;;;;4.80;3.22;;;;;;;;;;4955825;28;20093;-61
2022/09/13 01:50:30;;;;;;;6.32;3.08;;;;;;;;;;4973138;28;20035;-67
2022/09/13 01:53:03;;;;;;;5.03;3.72;;;;;;;;;;4972860;28;20035;-67
2022/09/13 01:55:45;;;;;;;5.03;3.47;;;;;;;;;;4972912;28;20047;-62
2022/09/13 01:58:23;;;;;;;5.10;3.55;;;;;;;;;;4972940;28;20039;-65
2022/09/13 02:01:12;;;;;;;4.65;3.35;;;;;;;;;;4971699;28;20077;-63
2022/09/13 02:04:02;;;;;;;4.10;3.50;;;;;;;;;;4973441;28;20058;-70
2022/09/13 02:06:35;;;;;;;4.15;3.42;;;;;;;;;;4991822;28;20370;-59
2022/09/13 02:09:21;;;;;;;;;;;;;;;;;;4980806;28;20047;-68
2022/09/13 02:11:55;;;;;;;4.30;3.30;;;;;;;;;;4966496;28;19922;-62
2022/09/13 02:14:30;;;;;;;5.75;3.40;;;;;;;;;;4972369;28;20026;-60
2022/09/13 02:17:07;;;;;;;4.60;3.50;;;;;;;;;;4976041;28;20386;-61
2022/09/13 02:19:49;;;;;;;4.97;3.50;;;;;;;;;;4976162;28;20387;-64
2022/09/13 02:22:18;;;;;;;4.43;3.50;;;;;;;;;;4976280;28;20126;-61
2022/09/13 02:24:48;;;;;;;5.57;3.60;;;;;;;;;;4976097;28;20031;-67
2022/09/13 02:27:20;;;;;;;4.85;3.80;;;;;;;;;;4975866;28;20065;-60
2022/09/13 02:29:50;;;;;;;5.78;3.20;;;;;;;;;;4975598;28;20046;-67
2022/09/13 02:32:31;;;;;;;4.28;3.65;;;;;;;;;;4974303;28;20045;-66
2022/09/13 02:35:04;;;;;;;7.38;4.05;;;;;;;;;;4975447;28;20047;-66
2022/09/13 02:37:33;;;;;;;;;;;;;;;;;;4976116;28;20042;-65
2022/09/13 02:40:05;;;;;;;5.35;4.13;;;;;;;;;;4975584;28;19914;-63
2022/09/13 02:42:42;;;;;;;4.63;3.70;;;;;;;;;;4975733;28;20030;-68
2022/09/13 02:45:11;;;;;;;4.57;3.40;;;;;;;;;;4975594;28;20491;-63
2022/09/13 02:47:43;;;;;;;7.85;3.67;;;;;;;;;;4975448;28;20105;-60
2022/09/13 02:50:29;;;;;;;5.22;3.78;;;;;;;;;;4957810;28;20089;-65
2022/09/13 02:53:01;;;;;;;4.45;3.80;;;;;;;;;;4975775;28;20041;-68
2022/09/13 02:55:33;;;;;;;4.55;3.55;;;;;;;;;;4975536;28;20047;-69
2022/09/13 02:58:09;;;;;;;6.10;3.72;;;;;;;;;;4975619;28;20482;-69
2022/09/13 03:00:36;;;;;;;5.30;3.65;;;;;;;;;;4984308;28;20587;-69
2022/09/13 03:03:05;;;;;;;6.70;3.70;;;;;;;;;;4994263;28;20064;-60
2022/09/13 03:05:31;;;;;;;7.45;3.85;;;;;;;;;;4994746;28;20504;-64
2022/09/13 03:07:58;;;;;;;11.68;4.18;;;;;;;;;;4994586;28;20034;-68
2022/09/13 03:10:29;;;;;;;11.95;4.50;;;;;;;;;;4994265;28;20026;-66
2022/09/13 03:13:10;;;;;;;7.57;4.45;;;;;;;;;;4994589;28;20385;-70
2022/09/13 03:16:04;;;;;;;8.20;4.20;;;;;;;;;;4992881;28;20050;-66
2022/09/13 03:18:47;;;;;;;9.65;4.57;;;;;;;;;;4992028;28;20034;-62
2022/09/13 03:21:25;;;;;;;9.40;4.95;;;;;;;;;;4994291;28;20107;-65
2022/09/13 03:24:00;;;;;;;7.15;4.45;;;;;;;;;;4994051;28;20038;-60
2022/09/13 03:26:53;;;;;;;7.00;3.78;;;;;;;;;;4993475;28;20034;-63
2022/09/13 03:29:22;;;;;;;6.55;4.50;;;;;;;;;;4986112;28;20177;-60
2022/09/13 03:32:00;;;;;;;6.35;4.35;;;;;;;;;;4993899;28;20512;-64
2022/09/13 03:34:44;;;;;;;5.40;3.80;;;;;;;;;;4994191;28;20038;-66
2022/09/13 03:37:42;;;;;;;4.35;3.70;;;;;;;;;;4974802;28;20031;-64
2022/09/13 03:40:19;;;;;;;5.95;4.00;;;;;;;;;;4954174;28;20081;-66
2022/09/13 03:42:51;;;;;;;7.38;3.65;;;;;;;;;;4974571;28;20435;-62
2022/09/13 03:45:22;;;;;;;8.88;4.75;;;;;;;;;;4974563;28;20134;-67
2022/09/13 03:47:50;;;;;;;4.97;3.75;;;;;;;;;;4957033;28;20050;-63
2022/09/13 03:50:21;;;;;;;8.43;3.80;;;;;;;;;;4974309;28;20019;-64
2022/09/13 03:52:51;;;;;;;5.65;4.00;;;;;;;;;;4973093;28;20039;-63
2022/09/13 03:55:20;;;;;;;5.60;3.90;;;;;;;;;;4974340;28;20437;-62
2022/09/13 03:57:46;;;;;;;8.35;3.72;;;;;;;;;;4973902;28;20027;-68
2022/09/13 04:00:13;;;;;;;5.90;3.88;;;;;;;;;;4973711;28;20112;-62
2022/09/13 04:02:40;;;;;;;8.27;4.80;;;;;;;;;;4954716;29;20042;-61
2022/09/13 04:05:06;;;;;;;5.88;4.13;;;;;;;;;;4954417;29;20038;-61
2022/09/13 04:07:32;;;;;;;15.25;4.40;;;;;;;;;;4954351;29;20098;-61
2022/09/13 04:09:58;;;;;;;10.25;4.00;;;;;;;;;;4953874;28;20167;-62
2022/09/13 04:12:24;;;;;;;7.38;4.00;;;;;;;;;;4954249;29;20471;-61
2022/09/13 04:14:50;;;;;;;14.32;4.65;;;;;;;;;;4954426;29;20055;-63
2022/09/13 04:17:16;;;;;;;11.40;4.30;;;;;;;;;;4974383;28;20039;-62
2022/09/13 04:19:44;;;;;;;14.27;4.60;;;;;;;;;;4955791;28;20034;-61
2022/09/13 04:22:10;;;;;;;12.88;3.67;;;;;;;;;;4973430;28;20081;-61
2022/09/13 04:24:37;;;;;;;9.88;3.65;;;;;;;;;;4953625;28;20035;-61
2022/09/13 04:27:03;;;;;;;9.60;3.90;;;;;;;;;;4977764;28;20018;-61
2022/09/13 04:29:30;;;;;;;15.93;3.78;;;;;;;;;;4961463;28;20056;-61
2022/09/13 04:31:56;;;;;;;8.15;3.95;;;;;;;;;;4981520;28;20034;-61
2022/09/13 04:34:22;;;;;;;10.43;3.60;;;;;;;;;;4969528;28;20035;-62
2022/09/13 04:36:49;;;;;;;10.68;3.63;;;;;;;;;;4973172;28;20027;-61
2022/09/13 04:39:14;;;;;;;9.02;3.58;;;;;;;;;;4955790;28;20054;-61
2022/09/13 04:41:43;;;;;;;10.48;4.38;;;;;;;;;;4973337;28;20062;-61
2022/09/13 04:44:09;;;;;;;9.40;3.33;;;;;;;;;;4973778;28;20446;-61
2022/09/13 04:46:35;;;;;;;10.10;3.40;;;;;;;;;;4955977;28;20066;-61
2022/09/13 04:49:01;;;;;;;9.38;3.17;;;;;;;;;;4973193;28;20034;-64
2022/09/13 04:51:27;;;;;;;8.10;3.40;;;;;;;;;;4956099;28;20026;-62
2022/09/13 04:53:54;;;;;;;10.55;3.38;;;;;;;;;;4991734;28;20389;-61
2022/09/13 04:56:22;;;;;;;19.75;3.60;;;;;;;;;;4992747;28;20030;-61
2022/09/13 04:58:51;;;;;;;11.23;3.17;;;;;;;;;;4992296;28;20130;-60
2022/09/13 05:01:17;;;;;;;10.73;3.55;;;;;;;;;;4992117;28;20054;-62
2022/09/13 05:03:44;;;;;;;11.40;2.90;;;;;;;;;;4992447;28;20501;-60
2022/09/13 05:06:18;;;;;;;9.98;2.38;;;;;;;;;;4992602;28;20026;-60
2022/09/13 05:08:49;;;;;;;15.20;3.00;;;;;;;;;;4992340;28;20073;-61
2022/09/13 05:11:14;;;;;;;11.43;3.65;;;;;;;;;;4992566;28;20039;-61
2022/09/13 05:13:40;;;;;;;9.13;2.80;;;;;;;;;;4992682;28;20030;-61
2022/09/13 05:16:07;;;;;;;6.18;2.90;;;;;;;;;;4992264;28;20054;-61
2022/09/13 05:18:35;;;;;;;13.00;3.40;;;;;;;;;;4992264;28;20113;-61
2022/09/13 05:21:03;;;;;;;12.05;3.20;;;;;;;;;;4992268;28;20571;-61
2022/09/13 05:23:31;;;;;;;9.75;2.60;;;;;;;;;;4992363;28;20033;-61
2022/09/13 05:25:59;;;;;;;11.45;3.50;;;;;;;;;;4992245;28;20066;-61
2022/09/13 05:28:30;;;;;;;9.93;3.28;;;;;;;;;;4987817;28;20097;-61
2022/09/13 05:30:57;;;;;;;16.50;3.15;;;;;;;;;;4991974;28;20109;-63
2022/09/13 05:33:27;;;;;;;12.77;3.13;;;;;;;;;;4992244;28;20093;-61
2022/09/13 05:35:53;;;;;;;5.05;2.60;;;;;;;;;;4991620;28;20125;-61
2022/09/13 05:38:20;;;;;;;11.27;2.97;;;;;;;;;;4989958;28;20029;-61
2022/09/13 05:40:45;;;;;;;14.02;3.13;;;;;;;;;;4992006;28;20033;-61
2022/09/13 05:43:12;;;;;;;16.85;3.83;;;;;;;;;;4974168;28;20386;-60
2022/09/13 05:45:38;;;;;;;12.02;3.20;;;;;;;;;;4991777;28;20050;-62
2022/09/13 05:48:04;;;;;;;12.40;3.00;;;;;;;;;;4991556;28;20035;-60
2022/09/13 05:50:30;;;;;;;8.07;2.40;;;;;;;;;;4993232;28;20038;-62
2022/09/13 05:52:56;;;;;;;9.82;2.33;;;;;;;;;;4964708;28;20390;-62
2022/09/13 05:55:22;;;;;;;10.35;2.50;;;;;;;;;;4984978;28;20035;-61
2022/09/13 05:57:49;;;;;;;12.10;2.90;;;;;;;;;;4979341;28;20041;-61
2022/09/13 06:00:15;;;;;;;11.32;2.58;;;;;;;;;;4975686;28;20105;-61
2022/09/13 06:02:41;;;;;;;6.88;2.22;;;;;;;;;;4975974;28;20596;-62
2022/09/13 06:05:12;;;;;;;17.42;3.17;;;;;;;;;;4975788;28;20498;-60
2022/09/13 06:07:41;;;;;;;7.22;2.35;;;;;;;;;;4976052;28;20549;-62
2022/09/13 06:10:09;;;;;;;15.13;2.67;;;;;;;;;;4988618;28;20508;-60
2022/09/13 06:12:37;;;;;;;14.40;2.53;;;;;;;;;;4995220;28;20058;-61
2022/09/13 06:15:03;;;;;;;7.80;2.95;;;;;;;;;;4995279;28;20042;-62
2022/09/13 06:17:29;;;;;;;9.02;2.72;;;;;;;;;;4995082;28;20505;-62
2022/09/13 06:19:55;;;;;;;8.18;2.03;;;;;;;;;;4977543;28;20080;-62
2022/09/13 06:22:22;;;;;;;9.52;3.15;;;;;;;;;;4995137;28;20034;-61
2022/09/13 06:24:48;;;;;;;7.40;2.40;;;;;;;;;;4977532;28;20061;-60
2022/09/13 06:27:13;;;;;;;10.05;2.67;;;;;;;;;;4980499;28;20081;-61
2022/09/13 06:29:39;;;;;;;9.57;2.78;;;;;;;;;;4983483;28;20030;-62
2022/09/13 06:32:05;;;;;;;7.00;2.17;;;;;;;;;;4981919;28;20092;-69
2022/09/13 06:34:31;;;;;;;5.88;1.92;;;;;;;;;;4983828;28;20026;-67
2022/09/13 06:36:57;;;;;;;7.22;2.30;;;;;;;;;;4985525;28;20054;-67
2022/09/13 06:39:23;;;;;;;4.97;2.45;;;;;;;;;;4987265;28;20026;-64
2022/09/13 06:41:49;;;;;;;8.85;2.10;;;;;;;;;;4982591;28;20053;-65
2022/09/13 06:44:15;;;;;;;4.43;2.10;;;;;;;;;;4966523;28;20033;-67
2022/09/13 06:46:41;;;;;;;4.00;1.80;;;;;;;;;;4981094;28;20399;-65
2022/09/13 06:49:08;;;;;;;4.38;2.10;;;;;;;;;;4957685;28;20124;-63
2022/09/13 06:51:35;;;;;;;6.28;2.10;;;;;;;;;;4974961;28;20390;-65
2022/09/13 06:54:02;;;;;;;5.40;1.98;;;;;;;;;;4956788;28;20082;-65
2022/09/13 06:56:31;;;;;;;5.68;1.80;;;;;;;;;;4957387;28;20417;-65
2022/09/13 06:58:59;;;;;;;3.60;1.70;;;;;;;;;;4972266;28;20022;-65
2022/09/13 07:01:31;;;;;;;9.32;3.25;;;;;;;;;;4992755;28;20033;-66
2022/09/13 07:04:02;;;;;;;4.70;2.13;;;;;;;;;;4993068;28;20036;-64
2022/09/13 07:06:31;;;;;;;3.70;1.75;;;;;;;;;;4979123;28;20042;-64
2022/09/13 07:08:58;;;;;;;5.35;1.98;;;;;;;;;;4973703;28;20023;-64
2022/09/13 07:11:27;;;;;;;6.13;2.05;;;;;;;;;;4974449;28;20086;-64
2022/09/13 07:13:55;;;;;;;6.53;2.10;;;;;;;;;;4974153;28;20031;-65
2022/09/13 07:16:24;;;;;;;5.38;1.90;;;;;;;;;;4974037;28;20043;-65
2022/09/13 07:18:52;;;;;;;6.68;2.00;;;;;;;;;;4973748;28;20093;-64
2022/09/13 07:21:18;;;;;;;3.65;2.05;;;;;;;;;;4974424;28;20031;-64
2022/09/13 07:23:44;;;;;;;3.45;1.85;;;;;;;;;;4974307;28;20101;-64
2022/09/13 07:26:10;;;;;;;11.80;2.22;;;;;;;;;;4992296;28;20125;-65
2022/09/13 07:28:39;;;;;;;7.72;1.92;;;;;;;;;;4991155;28;20019;-65
2022/09/13 07:31:07;;;;;;;5.88;1.73;;;;;;;;;;4992293;28;20362;-65
2022/09/13 07:33:32;;;;;;;2.35;1.60;;;;;;;;;;4991408;28;20026;-67
2022/09/13 07:36:00;;;;;;;4.32;1.70;;;;;;;;;;4992747;28;20389;-67
2022/09/13 07:38:25;;;;;;;6.10;2.03;;;;;;;;;;4992752;28;20023;-65
2022/09/13 07:40:56;;;;;;;4.93;3.00;;;;;;;;;;4992573;28;20088;-66
2022/09/13 07:43:23;;;;;;;4.07;2.03;;;;;;;;;;4994742;28;20502;-64
2022/09/13 07:45:57;;;;;;;6.55;2.00;;;;;;;;;;4977188;28;20037;-64
2022/09/13 07:48:23;;;;;;;4.65;1.98;;;;;;;;;;4994509;28;20478;-64
2022/09/13 07:51:01;;;;;;;5.30;2.08;;;;;;;;;;4994543;28;20165;-64
2022/09/13 07:53:27;;;;;;;4.43;1.60;;;;;;;;;;4993148;28;20128;-64
2022/09/13 07:55:53;;;;;;;3.53;1.85;;;;;;;;;;4973375;28;20022;-64
2022/09/13 07:58:19;;;;;;;3.38;1.70;;;;;;;;;;4972269;28;20038;-64
2022/09/13 08:00:45;;;;;;;3.90;2.13;;;;;;;;;;4973104;28;20031;-66
2022/09/13 08:03:11;;;;;;;5.15;1.60;;;;;;;;;;4973750;28;20086;-70
2022/09/13 08:05:40;;;;;;;3.90;1.83;;;;;;;;;;4973693;28;20050;-66
2022/09/13 08:08:06;;;;;;;2.70;1.48;;;;;;;;;;4973835;28;20031;-64
2022/09/13 08:10:33;;;;;;;3.25;1.60;;;;;;;;;;4974791;28;20118;-65
2022/09/13 08:12:59;;;;;;;6.03;1.60;;;;;;;;;;4955655;28;20089;-64
2022/09/13 08:15:25;;;;;;;2.95;1.60;;;;;;;;;;4955852;28;20054;-64
2022/09/13 08:17:52;;;;;;;3.28;1.45;;;;;;;;;;4973736;28;20538;-65
2022/09/13 08:20:19;;;;;;;4.47;1.55;;;;;;;;;;4955936;28;20581;-65
2022/09/13 08:22:45;;;;;;;4.93;1.75;;;;;;;;;;4972836;28;20434;-66
2022/09/13 08:25:11;;;;;;;3.88;1.73;;;;;;;;;;4972041;28;20053;-65
2022/09/13 08:27:37;;;;;;;2.92;1.60;;;;;;;;;;4973090;28;20035;-68
2022/09/13 08:30:04;;;;;;;2.72;1.63;;;;;;;;;;4959810;28;20394;-65
2022/09/13 08:32:30;;;;;;;2.47;1.50;;;;;;;;;;4973086;28;20115;-69
2022/09/13 08:34:56;;;;;;;4.65;1.52;;;;;;;;;;4972366;28;20035;-64
2022/09/13 08:37:22;;;;;;;2.20;1.80;;;;;;;;;;4974240;28;20073;-71
2022/09/13 08:39:48;;;;;;;2.58;1.73;;;;;;;;;;4991897;28;20023;-70
2022/09/13 08:42:28;;;;;;;3.42;1.50;;;;;;;;;;4992271;28;20118;-65
2022/09/13 08:44:56;;;;;;;2.78;1.67;;;;;;;;;;4992315;28;20047;-65
2022/09/13 08:47:34;;;;;;;2.20;1.55;;;;;;;;;;4992338;28;20386;-63
2022/09/13 08:50:22;;;;;;;2.65;1.50;;;;;;;;;;4992398;28;20089;-65
2022/09/13 08:52:59;;;;;;;4.72;2.30;;;;;;;;;;4992097;28;20117;-64
2022/09/13 08:55:43;;;;;;;2.10;1.50;;;;;;;;;;4992240;28;20121;-66
2022/09/13 08:58:45;;;;;;;2.13;1.50;;;;;;;;;;4991149;28;20039;-65
2022/09/13 09:01:13;;;;;;;3.17;1.67;;;;;;;;;;4991343;28;20038;-66
2022/09/13 09:04:05;;;;;;;3.03;1.85;;;;;;;;;;4991680;28;20569;-66
2022/09/13 09:06:34;;;;;;;7.68;1.90;;;;;;;;;;4991895;28;20052;-67
2022/09/13 09:09:32;;;;;;;4.00;1.77;;;;;;;;;;4991575;28;20363;-66
2022/09/13 09:12:19;;;;;;;2.58;1.92;;;;;;;;;;4984073;28;20046;-64
2022/09/13 09:15:08;;;;;;;6.30;4.35;;;;;;;;;;4991634;28;20470;-65
2022/09/13 09:17:48;;;;;;;3.85;1.48;;;;;;;;;;4981508;28;20050;-64
2022/09/13 09:20:24;;;;;;;2.15;1.50;;;;;;;;;;4991857;28;20136;-66
2022/09/13 09:22:53;;;;;;;5.53;1.90;;;;;;;;;;4991838;28;20057;-65
2022/09/13 09:25:21;;;;;;;2.10;1.80;;;;;;;;;;4992842;28;20482;-67
2022/09/13 09:27:47;;;;;;;3.97;2.45;;;;;;;;;;4995239;28;20049;-64
2022/09/13 09:30:13;;;;;;;2.92;1.73;;;;;;;;;;4995633;28;20109;-66
2022/09/13 09:33:09;;;;;;;3.70;1.80;;;;;;;;;;4995656;28;20040;-64
2022/09/13 09:35:41;;;;;;;3.08;1.92;;;;;;;;;;4990321;28;20061;-64
2022/09/13 09:38:26;;;;;;;3.35;1.75;;;;;;;;;;4994170;28;20313;-70
2022/09/13 09:40:52;;;;;;;2.83;1.70;;;;;;;;;;4995919;28;20045;-65
2022/09/13 09:43:27;;;;;;;4.47;1.90;;;;;;;;;;4995395;28;20504;-64
2022/09/13 09:45:56;;;;;;;8.10;2.00;;;;;;;;;;4977747;28;20788;-66
2022/09/13 09:48:28;;;;;;;3.83;1.55;;;;;;;;;;4995668;28;20023;-66
2022/09/13 09:51:00;;;;;;;2.55;1.60;;;;;;;;;;4995054;28;20034;-65
2022/09/13 09:53:37;;;;;;;2.20;1.60;;;;;;;;;;4995725;28;20042;-64
2022/09/13 09:56:23;;;;;;;2.70;1.83;;;;;;;;;;4995468;28;20066;-65
2022/09/13 09:58:51;;;;;;;3.60;1.85;;;;;;;;;;4977855;28;20072;-65
2022/09/13 10:01:26;;;;;;;8.68;2.30;;;;;;;;;;4977739;28;20061;-65
2022/09/13 10:04:03;;;;;;;6.50;2.00;;;;;;;;;;4994538;28;20034;-66
2022/09/13 10:06:30;;;;;;;3.50;1.98;;;;;;;;;;4978035;28;20090;-64
2022/09/13 10:09:02;;;;;;;4.07;1.85;;;;;;;;;;4995366;28;20023;-65
2022/09/13 10:11:49;;;;;;;3.78;1.70;;;;;;;;;;4994718;28;20038;-68
2022/09/13 10:14:46;;;;;;;9.63;2.00;;;;;;;;;;4974311;28;20485;-65
2022/09/13 10:17:20;;;;;;;3.40;1.70;;;;;;;;;;4973456;28;20093;-65
2022/09/13 10:20:02;;;;;;;3.88;1.70;;;;;;;;;;4979603;28;20510;-64
2022/09/13 10:22:30;;;;;;;6.70;2.00;;;;;;;;;;4980651;28;20161;-65
2022/09/13 10:25:36;;;;;;;3.35;1.95;;;;;;;;;;4972896;28;20022;-65
2022/09/13 10:28:05;;;;;;;6.82;2.03;;;;;;;;;;4918626;29;20039;-65
2022/09/13 10:30:37;;;;;;;5.32;2.10;;;;;;;;;;4921514;29;20039;-67
2022/09/13 10:33:04;;;;;;;1.77;1.33;;;;;;;;;;4935328;29;20074;-67
2022/09/13 10:35:31;;;;;;;2.47;1.58;;;;;;;;;;4938404;28;20031;-65
2022/09/13 10:37:57;;;;;;;2.67;1.73;;;;;;;;;;4948411;28;20031;-65
2022/09/13 10:40:32;;;;;;;3.80;2.42;;;;;;;;;;4989747;28;20363;-66
2022/09/13 10:43:00;;;;;;;2.47;1.70;;;;;;;;;;4983877;28;20058;-66
2022/09/13 10:45:28;;;;;;;3.90;2.28;;;;;;;;;;4974813;28;20031;-66
2022/09/13 10:48:04;;;;;;;5.20;2.00;;;;;;;;;;4981296;28;20464;-66
2022/09/13 10:50:30;;;;;;;2.67;1.73;;;;;;;;;;4972814;28;20125;-66
2022/09/13 10:53:00;;;;;;;4.70;1.75;;;;;;;;;;4974232;28;20019;-66
2022/09/13 10:55:29;;;;;;;4.13;2.05;;;;;;;;;;4973289;28;20043;-64
2022/09/13 10:58:00;;;;;;;3.20;2.05;;;;;;;;;;4973006;28;20430;-66
2022/09/13 11:00:31;;;;;;;3.03;1.80;;;;;;;;;;4974649;28;20039;-66
2022/09/13 11:03:15;;;;;;;3.50;1.70;;;;;;;;;;4974449;28;20038;-66
2022/09/13 11:05:51;;;;;;;6.13;2.40;;;;;;;;;;4974486;28;20114;-66
2022/09/13 11:08:25;;;;;;;4.03;1.90;;;;;;;;;;4972335;28;20483;-65
2022/09/13 11:10:57;;;;;;;7.63;3.05;;;;;;;;;;4974036;28;20039;-64
2022/09/13 11:13:40;;;;;;;5.22;1.77;;;;;;;;;;4973383;28;20031;-66
2022/09/13 11:16:28;;;;;;;8.40;2.15;;;;;;;;;;4973938;28;20046;-66
2022/09/13 11:18:59;;;;;;;5.10;2.00;;;;;;;;;;4976558;28;20034;-66
2022/09/13 11:21:57;;;;;;;4.28;1.67;;;;;;;;;;4975095;28;20034;-65
2022/09/13 11:24:52;;;;;;;2.60;1.90;;;;;;;;;;4993233;28;20116;-68
2022/09/13 11:27:53;;;;;;;4.28;1.98;;;;;;;;;;4994430;28;20046;-66
2022/09/13 11:30:22;;;;;;;4.38;2.38;;;;;;;;;;4961460;28;20058;-65
2022/09/13 11:33:31;;;;;;;6.88;1.90;;;;;;;;;;4994345;28;20053;-65
2022/09/13 11:36:03;;;;;;;2.10;1.63;;;;;;;;;;4953184;28;20057;-66
2022/09/13 11:38:38;;;;;;;4.43;1.80;;;;;;;;;;4987352;28;20039;-65
2022/09/13 11:41:37;;;;;;;8.43;2.10;;;;;;;;;;4980778;28;20070;-66
2022/09/13 11:44:41;;;;;;;3.00;1.90;;;;;;;;;;4974026;28;20035;-65
2022/09/13 11:47:27;;;;;;;5.00;1.90;;;;;;;;;;4973842;28;20118;-67
2022/09/13 11:50:14;;;;;;;2.35;1.60;;;;;;;;;;4973262;28;20084;-67
2022/09/13 11:53:00;;;;;;;2.80;1.65;;;;;;;;;;4973659;28;20367;-64
2022/09/13 11:55:32;;;;;;;5.22;2.17;;;;;;;;;;4987574;28;20057;-66
2022/09/13 11:58:03;;;;;;;8.23;1.80;;;;;;;;;;4991683;28;20189;-65
2022/09/13 12:00:43;;;;;;;2.67;1.92;;;;;;;;;;4992761;28;20034;-65
2022/09/13 12:03:24;;;;;;;3.95;1.95;;;;;;;;;;4973712;28;20058;-65
2022/09/13 12:05:55;;;;;;;4.75;2.25;;;;;;;;;;4973066;28;20499;-66
2022/09/13 12:08:28;;;;;;;4.57;2.10;;;;;;;;;;4973582;28;20063;-65
2022/09/13 12:10:57;;;;;;;2.50;1.80;;;;;;;;;;4973303;28;20118;-64
2022/09/13 12:13:40;;;;;;;2.97;2.00;;;;;;;;;;4973406;28;20118;-65
2022/09/13 12:16:08;;;;;;;2.75;1.95;;;;;;;;;;4972056;28;20047;-66
2022/09/13 12:18:43;;;;;;;3.47;1.70;;;;;;;;;;4973537;28;20118;-66
2022/09/13 12:21:13;;;;;;;2.80;2.03;;;;;;;;;;4972583;28;20043;-67
2022/09/13 12:23:46;;;;;;;2.97;1.70;;;;;;;;;;4971979;28;20046;-65
2022/09/13 12:26:36;;;;;;;3.42;1.67;;;;;;;;;;4971621;28;20026;-65
2022/09/13 12:29:12;;;;;;;4.00;2.10;;;;;;;;;;4972016;28;20035;-66
2022/09/13 12:31:38;;;;;;;5.15;1.90;;;;;;;;;;4971872;28;20485;-66
2022/09/13 12:34:15;;;;;;;2.97;1.80;;;;;;;;;;4971302;28;20027;-65
2022/09/13 12:37:04;;;;;;;5.72;2.00;;;;;;;;;;4971961;28;20106;-66
2022/09/13 12:40:02;;;;;;;7.32;3.20;;;;;;;;;;4971789;28;20035;-65
2022/09/13 12:42:42;;;;;;;3.13;1.80;;;;;;;;;;4971705;28;20050;-67
2022/09/13 12:45:45;;;;;;;5.55;1.80;;;;;;;;;;4973120;28;20031;-66
2022/09/13 12:48:14;;;;;;;4.13;1.80;;;;;;;;;;4954413;29;20078;-65
2022/09/13 12:50:57;;;;;;;3.35;1.80;;;;;;;;;;4954010;28;20031;-66
2022/09/13 12:53:55;;;;;;;3.60;2.08;;;;;;;;;;4954380;29;20130;-66
2022/09/13 12:56:36;;;;;;;4.15;1.50;;;;;;;;;;4954382;29;20423;-67
2022/09/13 12:59:11;;;;;;;5.10;1.83;;;;;;;;;;4966570;28;20057;-66
2022/09/13 13:01:37;;;;;;;4.05;1.85;;;;;;;;;;4992602;28;20053;-67
2022/09/13 13:04:12;;;;;;;2.58;1.67;;;;;;;;;;4991897;28;20018;-65
2022/09/13 13:06:49;;;;;;;4.47;1.80;;;;;;;;;;4973559;28;20039;-66
2022/09/13 13:09:21;;;;;;;3.95;2.17;;;;;;;;;;4973246;28;20506;-64
2022/09/13 13:11:48;;;;;;;4.90;1.90;;;;;;;;;;4972698;28;20059;-67
2022/09/13 13:14:26;;;;;;;4.90;1.80;;;;;;;;;;4973218;28;20023;-66
2022/09/13 13:16:52;;;;;;;3.53;1.90;;;;;;;;;;4973363;28;20040;-66
2022/09/13 13:19:31;;;;;;;4.65;2.20;;;;;;;;;;4973355;28;20027;-66
2022/09/13 13:22:36;;;;;;;4.65;2.10;;;;;;;;;;4973451;28;20038;-68
2022/09/13 13:25:29;;;;;;;3.50;1.70;;;;;;;;;;4969801;28;20051;-67
2022/09/13 13:27:55;;;;;;;3.80;2.20;;;;;;;;;;4973573;28;20562;-67
2022/09/13 13:30:51;;;;;;;2.55;1.80;;;;;;;;;;4978247;28;20110;-68
2022/09/13 13:33:25;;;;;;;3.38;1.65;;;;;;;;;;4988293;28;20390;-67
2022/09/13 13:35:52;;;;;;;2.67;1.83;;;;;;;;;;4974061;28;20035;-66
2022/09/13 13:38:46;;;;;;;4.47;1.98;;;;;;;;;;4972773;28;20086;-66
2022/09/13 13:41:37;;;;;;;4.93;2.25;;;;;;;;;;4972609;28;20482;-65
2022/09/13 13:44:23;;;;;;;4.75;2.10;;;;;;;;;;4972639;28;20118;-66
2022/09/13 13:46:50;;;;;;;4.13;1.48;;;;;;;;;;4961787;28;20054;-66
2022/09/13 13:49:29;;;;;;;6.32;2.03;;;;;;;;;;4971375;28;20039;-66
2022/09/13 13:52:17;;;;;;;5.97;2.65;;;;;;;;;;4972532;28;20035;-66
2022/09/13 13:54:58;;;;;;;3.53;1.90;;;;;;;;;;4971931;28;20170;-66
2022/09/13 13:57:55;;;;;;;4.55;2.00;;;;;;;;;;4972754;28;20433;-66
2022/09/13 14:00:30;;;;;;;3.70;2.00;;;;;;;;;;4972672;28;20045;-65
2022/09/13 14:03:08;;;;;;;3.35;1.90;;;;;;;;;;4972808;28;20039;-68
2022/09/13 14:05:58;;;;;;;4.57;1.85;;;;;;;;;;4972339;28;20031;-68
2022/09/13 14:09:01;;;;;;;6.57;3.10;;;;;;;;;;4972717;28;20023;-67
2022/09/13 14:12:08;;;;;;;5.03;2.30;;;;;;;;;;4973819;28;20043;-68
2022/09/13 14:14:57;;;;;;;2.55;1.55;;;;;;;;;;4960368;28;20048;-67
2022/09/13 14:17:58;;;;;;;3.63;1.58;;;;;;;;;;4937621;29;20040;-68
2022/09/13 14:20:25;;;;;;;6.80;2.00;;;;;;;;;;4937769;29;20435;-68
2022/09/13 14:22:50;;;;;;;2.13;1.52;;;;;;;;;;4948809;28;20471;-66
2022/09/13 14:25:21;;;;;;;2.88;1.58;;;;;;;;;;4954691;28;20090;-66
2022/09/13 14:27:48;;;;;;;3.95;1.80;;;;;;;;;;4953909;28;20041;-66
2022/09/13 14:30:18;;;;;;;3.63;1.90;;;;;;;;;;4954556;28;20030;-65
2022/09/13 14:32:47;;;;;;;6.53;2.08;;;;;;;;;;4969440;28;20152;-66
2022/09/13 14:35:25;;;;;;;5.13;2.03;;;;;;;;;;4954771;28;20054;-66
2022/09/13 14:37:51;;;;;;;3.35;2.00;;;;;;;;;;4954869;29;20031;-65
2022/09/13 14:40:21;;;;;;;3.03;1.65;;;;;;;;;;4952649;28;20078;-65
2022/09/13 14:42:49;;;;;;;3.55;1.70;;;;;;;;;;4955447;28;20442;-66
2022/09/13 14:45:31;;;;;;;3.95;1.55;;;;;;;;;;4955381;28;20114;-65
2022/09/13 14:48:07;;;;;;;4.10;1.83;;;;;;;;;;4956441;28;20487;-66
2022/09/13 14:50:38;;;;;;;4.55;1.60;;;;;;;;;;4956292;28;20039;-66
2022/09/13 14:53:15;;;;;;;6.18;1.80;;;;;;;;;;4955571;28;20082;-66
2022/09/13 14:55:44;;;;;;;2.53;1.80;;;;;;;;;;4956153;28;20035;-65
2022/09/13 14:58:18;;;;;;;2.30;1.70;;;;;;;;;;4956185;28;20478;-65
2022/09/13 15:00:52;;;;;;;2.88;1.40;;;;;;;;;;4956063;28;20038;-67
2022/09/13 15:03:18;;;;;;;2.53;1.63;;;;;;;;;;4956056;28;20038;-68
2022/09/13 15:05:56;;;;;;;5.20;1.60;;;;;;;;;;4955325;28;20024;-66
2022/09/13 15:08:31;;;;;;;3.38;1.70;;;;;;;;;;4956094;29;20118;-64
2022/09/13 15:10:57;;;;;;;3.85;1.75;;;;;;;;;;4964385;28;20073;-68
2022/09/13 15:13:23;;;;;;;3.88;1.60;;;;;;;;;;4972500;28;20026;-66
2022/09/13 15:15:50;;;;;;;5.18;1.85;;;;;;;;;;4987636;28;20042;-66
2022/09/13 15:18:19;;;;;;;6.20;1.80;;;;;;;;;;4975277;28;20031;-66
2022/09/13 15:20:47;;;;;;;5.00;1.83;;;;;;;;;;4993590;28;20034;-66
2022/09/13 15:23:32;;;;;;;2.55;1.40;;;;;;;;;;4992754;28;20035;-66